Startpagina
METAR-TAF:

METAR-TAF

Vliegvelden :

Kasane Airport

Kasane, Botswana

breedte: 17-49S, lengte: 025-09E, hoogte: 968 m

Actueel weer

Dit bericht is 3 uur en het 18 minuten geleden gemaakt, om 18:00 UTC
Wind 7 kt uit het oostnoordoosten
Temperatuur 24°C
Vochtigheid 69%
Druk 1019 hPa
Zicht 10 km of meer
Weinig wolken op 2500 ft
Verspreide wolken op 7000 ft

METAR: FBKE 091800Z 06007KT 9999 FEW025 SCT070 24/18 Q1019

Tijdstip: 23:18 (21:18 UTC)

Verwachting

Dit bericht is 9 uur en het 18 minuten geleden gemaakt, om 12:00 UTC
Verwachting geldig van 09 om 15 UTC tot 09 om 24 UTC
Wind 13 kt uit het oostnoordoosten
Zicht 10 km of meer
Verspreide wolken op 2000 ft
Weinig wolken op 3000 ft, Cumulonimbus.
Wijzigt naar
van 09 om 17 UTC tot 09 om 19 UTC
Zicht 10 km of meer
geen wolken onder 1500 m en geen cumulonimbus

TAF: FBKE 091200Z 0915/0924 07013KT 9999 SCT020 FEW030CB BECMG 0917/0919 CAVOK

Waarnemingen en weersverwachtingen van meer dan 4000 vliegvelden (METAR en TAF).

De beschikbare stations zijn de gele en rode punten op de kaart.

Ga met uw muis naar het station om de naam te zien.

Klik dan om waarnemingen en weersverwachtingen te zien.

kaart wijzigen: klik op de groene knoppen met een zwart kruis om in te zoomen, op de groene knop met een streepje om uit te zoomen of op de groene pijlen voor aangrenzende kaarten.


METAR-TAF: